Terminal Aerodrome Forecast
Issued by NWS Boston, MA

Home | Current Version | Previous Version | Text Only | Print | Product List | Glossary On
Versions: 1 2 3 4 5 6 7 8 9 10 11 12 13 14 15 16 17 18 19 20 21 22 23
000
FTUS41 KBOX 252332
TAFORH
TAF
KORH 252332Z 2600/2624 VRB03KT P6SM SCT035 BKN120
     FM260300 00000KT P6SM SCT150
     FM261000 32004KT 1/2SM FG FEW200
     FM261100 34004KT P6SM FEW250
     FM261600 07004KT P6SM FEW250
     FM261700 13004KT P6SM FEW060
     FM262000 19006KT P6SM FEW250=

USA.gov is the U.S. government's official web portal to all federal, state and local government web resources and services.